createdAt,value
2023-04-18T00:04:42.974Z,3.90
2023-04-18T00:07:47.269Z,3.70
2023-04-18T00:10:50.491Z,3.50
2023-04-18T00:13:54.561Z,3.90
2023-04-18T00:16:57.871Z,3.30
2023-04-18T00:20:07.394Z,3.50
2023-04-18T00:23:14.300Z,3.20
2023-04-18T00:26:17.679Z,3.10
2023-04-18T00:29:21.481Z,3.30
2023-04-18T00:32:24.707Z,2.80
2023-04-18T00:35:28.061Z,2.80
2023-04-18T00:38:31.374Z,2.90
2023-04-18T00:41:34.778Z,3.10
2023-04-18T00:44:38.887Z,2.80
2023-04-18T00:47:42.328Z,3.00
2023-04-18T00:50:47.450Z,2.60
2023-04-18T00:53:51.666Z,2.70
2023-04-18T00:56:55.156Z,2.70
2023-04-18T01:00:01.459Z,2.80
2023-04-18T01:03:08.629Z,2.70
2023-04-18T01:06:12.508Z,2.80
2023-04-18T01:09:16.439Z,2.50
2023-04-18T01:15:27.230Z,2.50
2023-04-18T01:18:32.777Z,2.50
2023-04-18T01:21:44.081Z,3.20
2023-04-18T01:24:49.391Z,2.70
2023-04-18T01:27:54.588Z,2.80
2023-04-18T01:31:00.106Z,2.70
2023-04-18T01:34:05.243Z,2.90
2023-04-18T01:37:08.730Z,2.50
2023-04-18T01:40:12.546Z,2.80
2023-04-18T01:43:17.163Z,2.30
2023-04-18T01:46:20.834Z,2.80
2023-04-18T01:49:24.184Z,2.60
2023-04-18T01:52:28.095Z,3.00
2023-04-18T01:55:31.390Z,3.10
2023-04-18T01:58:36.820Z,2.50
2023-04-18T02:04:42.086Z,2.90
2023-04-18T02:07:47.840Z,2.90
2023-04-18T02:10:51.338Z,3.20
2023-04-18T02:13:54.956Z,2.70
2023-04-18T02:16:59.570Z,2.50
2023-04-18T02:20:02.979Z,3.00
2023-04-18T02:23:07.997Z,3.40
2023-04-18T02:26:11.326Z,3.70
2023-04-18T02:29:14.713Z,3.70
2023-04-18T02:32:18.036Z,4.50
2023-04-18T02:35:23.158Z,3.70
2023-04-18T02:38:28.596Z,3.70
2023-04-18T02:41:35.134Z,3.50
2023-04-18T02:44:38.336Z,3.80
2023-04-18T02:47:53.815Z,3.40
2023-04-18T02:51:07.925Z,3.40
2023-04-18T02:54:12.745Z,3.80
2023-04-18T02:57:26.986Z,4.10
2023-04-18T03:00:36.530Z,3.80
2023-04-18T03:03:59.482Z,4.50
2023-04-18T03:07:10.075Z,4.90
2023-04-18T03:10:15.679Z,5.60
2023-04-18T03:13:19.114Z,5.30
2023-04-18T03:16:23.169Z,5.10
2023-04-18T03:19:27.225Z,5.10
2023-04-18T03:22:31.238Z,5.20
2023-04-18T03:25:35.789Z,5.30
2023-04-18T03:28:40.319Z,5.70
2023-04-18T03:31:44.254Z,4.50
2023-04-18T03:34:47.707Z,5.40
2023-04-18T03:37:51.218Z,4.80
2023-04-18T03:41:01.059Z,5.30
2023-04-18T03:44:09.476Z,5.50
2023-04-18T03:47:15.023Z,5.10
2023-04-18T03:50:19.762Z,5.60
2023-04-18T03:53:24.592Z,4.90
2023-04-18T03:56:27.887Z,5.00
2023-04-18T03:59:33.442Z,4.30
2023-04-18T04:05:03.203Z,4.30
2023-04-18T04:08:06.372Z,3.90
2023-04-18T04:11:09.236Z,4.00
2023-04-18T04:14:12.148Z,4.10
2023-04-18T04:17:17.919Z,3.70
2023-04-18T04:20:24.368Z,4.60
2023-04-18T04:23:33.738Z,4.20
2023-04-18T04:26:36.495Z,5.00
2023-04-18T04:29:44.187Z,4.80
2023-04-18T04:32:47.948Z,4.20
2023-04-18T04:35:52.009Z,4.00
2023-04-18T04:38:55.098Z,5.50
2023-04-18T04:42:05.058Z,3.50
2023-04-18T04:45:14.854Z,4.70
2023-04-18T04:48:18.399Z,4.30
2023-04-18T04:51:20.569Z,4.70
2023-04-18T04:54:24.321Z,4.40
2023-04-18T04:57:26.837Z,4.30
2023-04-18T05:00:29.048Z,5.30
2023-04-18T05:03:32.771Z,5.10
2023-04-18T05:06:35.005Z,6.40
2023-04-18T05:09:36.974Z,6.40
2023-04-18T05:12:39.048Z,6.80
2023-04-18T05:15:43.487Z,6.50
2023-04-18T05:18:45.962Z,6.00
2023-04-18T05:21:48.119Z,5.80
2023-04-18T05:24:50.290Z,6.10
2023-04-18T05:27:52.542Z,5.20
2023-04-18T05:31:00.692Z,5.20
2023-04-18T05:34:02.837Z,5.10
2023-04-18T05:37:04.912Z,4.90
2023-04-18T05:40:08.570Z,5.30
2023-04-18T05:43:11.823Z,4.80
2023-04-18T05:46:13.898Z,4.50
2023-04-18T05:49:15.982Z,4.60
2023-04-18T05:52:17.911Z,5.00
2023-04-18T05:55:20.187Z,4.70
2023-04-18T05:58:24.170Z,4.30
2023-04-18T06:04:44.282Z,4.20
2023-04-18T06:07:49.160Z,4.60
2023-04-18T06:10:52.547Z,3.80
2023-04-18T06:13:56.380Z,3.60
2023-04-18T06:17:00.139Z,4.00
2023-04-18T06:20:06.469Z,3.70
2023-04-18T06:23:10.251Z,4.10
2023-04-18T06:26:14.130Z,3.50
2023-04-18T06:29:18.304Z,4.30
2023-04-18T06:32:21.422Z,3.70
2023-04-18T06:35:26.549Z,4.60
2023-04-18T06:38:29.952Z,3.50
2023-04-18T06:41:33.063Z,3.80
2023-04-18T06:44:36.779Z,4.00
2023-04-18T06:47:40.918Z,3.50
2023-04-18T06:50:44.911Z,4.80
2023-04-18T06:53:48.697Z,3.10
2023-04-18T06:56:53.121Z,4.10
2023-04-18T07:03:50.299Z,4.20
2023-04-18T07:06:54.051Z,3.90
2023-04-18T07:09:57.462Z,3.10
2023-04-18T07:13:00.843Z,3.60
2023-04-18T07:16:04.506Z,2.90
2023-04-18T07:19:08.664Z,2.50
2023-04-18T07:22:12.067Z,3.10
2023-04-18T07:25:15.610Z,2.80
2023-04-18T07:28:19.095Z,3.30
2023-04-18T07:31:23.212Z,3.10
2023-04-18T07:34:29.993Z,3.00
2023-04-18T07:37:33.869Z,3.30
2023-04-18T07:40:37.164Z,3.30
2023-04-18T07:43:40.876Z,2.80
2023-04-18T07:46:44.189Z,3.10
2023-04-18T07:49:48.898Z,2.90
2023-04-18T07:52:52.173Z,2.70
2023-04-18T07:55:56.010Z,2.40
2023-04-18T07:58:59.896Z,3.00
2023-04-18T08:02:03.523Z,3.00
2023-04-18T08:05:07.801Z,2.40
2023-04-18T08:08:12.377Z,3.20
2023-04-18T08:11:15.565Z,2.70
2023-04-18T08:14:18.868Z,3.10
2023-04-18T08:17:23.695Z,3.00
2023-04-18T08:20:27.503Z,2.60
2023-04-18T08:23:30.947Z,2.80
2023-04-18T08:26:34.232Z,2.60
2023-04-18T08:29:37.913Z,3.60
2023-04-18T08:32:41.357Z,3.10
2023-04-18T08:35:44.826Z,2.90
2023-04-18T08:38:48.148Z,2.40
2023-04-18T08:41:57.548Z,2.40
2023-04-18T08:45:01.052Z,2.90
2023-04-18T08:48:04.838Z,2.50
2023-04-18T08:51:08.197Z,2.80
2023-04-18T08:54:12.490Z,3.50
2023-04-18T08:57:17.082Z,2.90
2023-04-18T09:00:20.840Z,2.60
2023-04-18T09:03:40.806Z,2.90
2023-04-18T09:06:53.141Z,2.50
2023-04-18T09:09:57.522Z,2.60
2023-04-18T09:13:03.946Z,3.40
2023-04-18T09:16:08.160Z,3.00
2023-04-18T09:19:18.151Z,2.80
2023-04-18T09:22:22.057Z,3.30
2023-04-18T09:25:45.443Z,3.80
2023-04-18T09:28:53.958Z,2.70
2023-04-18T09:32:02.703Z,3.10
2023-04-18T09:35:06.410Z,2.50
2023-04-18T09:38:10.826Z,2.70
2023-04-18T09:41:20.078Z,2.90
2023-04-18T09:44:24.806Z,2.50
2023-04-18T09:47:28.764Z,3.40
2023-04-18T09:50:33.331Z,2.60
2023-04-18T09:53:42.351Z,2.20
2023-04-18T09:56:46.773Z,2.60
2023-04-18T09:59:59.915Z,3.10
2023-04-18T10:04:47.478Z,3.20
2023-04-18T10:07:51.693Z,3.60
2023-04-18T10:10:56.795Z,3.30
2023-04-18T10:14:04.606Z,3.10
2023-04-18T10:17:10.175Z,3.30
2023-04-18T10:20:20.504Z,3.20
2023-04-18T10:23:35.831Z,3.20
2023-04-18T10:26:50.507Z,3.00
2023-04-18T10:29:56.426Z,2.90
2023-04-18T10:33:29.958Z,3.30
2023-04-18T10:36:36.416Z,2.40
2023-04-18T10:40:00.645Z,2.40
2023-04-18T10:43:07.164Z,2.90
2023-04-18T10:46:23.804Z,2.90
2023-04-18T10:49:34.055Z,2.10
2023-04-18T10:52:38.877Z,2.30
2023-04-18T10:55:53.533Z,2.60
2023-04-18T10:59:02.155Z,1.80
2023-04-18T11:02:32.722Z,1.90
2023-04-18T11:05:36.195Z,2.60
2023-04-18T11:08:40.100Z,1.70
2023-04-18T11:11:44.462Z,2.80
2023-04-18T11:14:50.078Z,2.10
2023-04-18T11:18:04.710Z,2.00
2023-04-18T11:21:08.181Z,2.10
2023-04-18T11:24:11.672Z,2.40
2023-04-18T11:27:16.301Z,1.70
2023-04-18T11:30:19.596Z,1.90
2023-04-18T11:33:27.741Z,1.70
2023-04-18T11:39:43.291Z,1.50
2023-04-18T11:42:47.705Z,2.60
2023-04-18T11:45:59.782Z,1.70
2023-04-18T11:49:03.317Z,2.10
2023-04-18T11:52:13.667Z,2.10
2023-04-18T11:55:21.509Z,2.00
2023-04-18T11:58:32.050Z,1.90
2023-04-18T12:01:35.352Z,2.40
2023-04-18T12:05:00.160Z,2.60
2023-04-18T12:08:07.327Z,2.60
2023-04-18T12:11:19.750Z,2.60
2023-04-18T12:14:23.268Z,2.30
2023-04-18T12:17:27.825Z,2.60
2023-04-18T12:20:48.691Z,2.90
2023-04-18T12:23:52.013Z,2.70
2023-04-18T12:26:58.966Z,2.50
2023-04-18T12:30:02.362Z,2.60
2023-04-18T12:33:06.984Z,2.30
2023-04-18T12:36:11.322Z,2.00
2023-04-18T12:39:14.599Z,2.60
2023-04-18T12:42:18.216Z,2.50
2023-04-18T12:45:22.997Z,2.80
2023-04-18T13:02:15.779Z,3.00
2023-04-18T13:05:21.652Z,3.20
2023-04-18T13:08:23.631Z,3.70
2023-04-18T13:11:28.125Z,3.10
2023-04-18T13:14:30.126Z,3.30
2023-04-18T13:17:33.342Z,3.40
2023-04-18T13:20:36.122Z,3.00
2023-04-18T13:23:38.357Z,3.20
2023-04-18T13:26:40.321Z,3.40
2023-04-18T13:29:43.408Z,4.30
2023-04-18T13:32:45.829Z,3.40
2023-04-18T13:35:48.049Z,3.80
2023-04-18T13:38:51.321Z,4.30
2023-04-18T13:55:41.955Z,4.20
2023-04-18T13:58:44.028Z,4.00
2023-04-18T14:04:42.194Z,5.30
2023-04-18T14:07:45.804Z,5.10
2023-04-18T14:10:49.104Z,5.80
2023-04-18T14:13:53.941Z,5.60
2023-04-18T14:16:57.551Z,6.90
2023-04-18T14:20:01.680Z,7.50
2023-04-18T14:23:04.956Z,6.70
2023-04-18T14:26:08.977Z,7.70
2023-04-18T14:29:14.623Z,6.60
2023-04-18T14:32:19.373Z,4.80
2023-04-18T14:35:22.570Z,5.60
2023-04-18T14:38:26.560Z,4.20
2023-04-18T14:41:29.779Z,3.30
2023-04-18T14:44:33.562Z,2.10
2023-04-18T14:47:39.263Z,2.10
2023-04-18T14:50:43.929Z,2.10
2023-04-18T14:53:47.159Z,2.90
2023-04-18T14:56:51.580Z,3.10
2023-04-18T14:59:55.267Z,2.60
2023-04-18T15:03:01.259Z,3.20
2023-04-18T15:06:04.962Z,2.70
2023-04-18T15:09:09.273Z,2.80
2023-04-18T15:12:12.564Z,3.60
2023-04-18T15:15:16.375Z,3.00
2023-04-18T15:18:20.068Z,3.20
2023-04-18T15:21:23.466Z,2.50
2023-04-18T15:24:26.966Z,3.00
2023-04-18T15:27:30.598Z,3.20
2023-04-18T15:30:34.178Z,3.20
2023-04-18T15:33:37.476Z,3.00
2023-04-18T15:36:41.697Z,2.70
2023-04-18T15:39:45.093Z,3.00
2023-04-18T15:42:49.824Z,2.60
2023-04-18T15:45:53.159Z,3.60
2023-04-18T15:48:56.837Z,3.60
2023-04-18T15:52:00.537Z,3.50
2023-04-18T15:55:05.444Z,3.10
2023-04-18T15:58:08.920Z,3.80
2023-04-18T16:01:16.131Z,3.50
2023-04-18T16:04:19.460Z,4.60
2023-04-18T16:07:23.468Z,4.50
2023-04-18T16:10:26.806Z,3.80
2023-04-18T16:13:31.092Z,3.30
2023-04-18T16:16:34.922Z,3.70
2023-04-18T16:19:41.264Z,3.70
2023-04-18T16:22:47.102Z,4.40
2023-04-18T16:25:51.441Z,3.20
2023-04-18T16:28:54.950Z,4.00
2023-04-18T16:31:58.458Z,3.90
2023-04-18T16:35:02.305Z,4.50
2023-04-18T16:38:06.376Z,5.60
2023-04-18T16:41:09.703Z,5.10
2023-04-18T16:44:13.402Z,4.90
2023-04-18T16:47:17.728Z,4.60
2023-04-18T16:50:22.837Z,4.20
2023-04-18T16:53:26.349Z,3.90
2023-04-18T16:56:30.090Z,3.70
2023-04-18T16:59:33.455Z,3.60
2023-04-18T17:02:39.779Z,3.40
2023-04-18T17:05:44.776Z,3.20
2023-04-18T17:08:49.207Z,2.70
2023-04-18T17:11:52.514Z,2.40
2023-04-18T17:14:55.890Z,2.70
2023-04-18T17:18:01.526Z,4.30
2023-04-18T17:21:05.259Z,4.40
2023-04-18T17:24:09.331Z,6.00
2023-04-18T17:40:42.851Z,4.50
2023-04-18T17:43:47.200Z,4.70
2023-04-18T17:46:50.714Z,4.70
2023-04-18T17:49:54.943Z,4.90
2023-04-18T17:52:58.249Z,5.20
2023-04-18T17:56:02.160Z,5.20
2023-04-18T17:59:07.587Z,5.60
2023-04-18T18:04:42.421Z,4.40
2023-04-18T18:07:48.745Z,4.50
2023-04-18T18:10:53.535Z,4.60
2023-04-18T18:13:57.638Z,3.60
2023-04-18T18:17:01.156Z,3.00
2023-04-18T18:20:10.628Z,2.90
2023-04-18T18:23:14.242Z,2.70
2023-04-18T18:26:17.569Z,2.50
2023-04-18T18:29:21.345Z,2.70
2023-04-18T18:32:24.879Z,2.20
2023-04-18T18:35:28.271Z,2.60
2023-04-18T18:38:31.653Z,3.10
2023-04-18T18:41:35.051Z,2.60
2023-04-18T18:44:38.569Z,2.40
2023-04-18T18:47:42.030Z,3.30
2023-04-18T18:50:45.578Z,2.60
2023-04-18T18:53:50.928Z,2.30
2023-04-18T18:56:54.310Z,3.10
2023-04-18T18:59:57.988Z,3.00
2023-04-18T19:03:01.822Z,2.70
2023-04-18T19:06:07.425Z,2.80
2023-04-18T19:09:12.041Z,2.80
2023-04-18T19:12:16.125Z,2.90
2023-04-18T19:15:19.933Z,2.40
2023-04-18T19:18:23.725Z,2.80
2023-04-18T19:21:27.630Z,2.20
2023-04-18T19:24:32.257Z,2.70
2023-04-18T19:27:36.185Z,2.30
2023-04-18T19:30:41.673Z,2.90
2023-04-18T19:33:45.021Z,2.40
2023-04-18T19:36:50.206Z,2.80
2023-04-18T19:39:54.378Z,2.80
2023-04-18T19:42:58.561Z,2.60
2023-04-18T19:46:02.325Z,3.50
2023-04-18T19:49:06.486Z,3.10
2023-04-18T19:52:11.460Z,3.30
2023-04-18T19:55:15.095Z,3.90
2023-04-18T19:58:40.005Z,3.70
2023-04-18T20:01:45.518Z,3.70
2023-04-18T20:04:49.923Z,3.90
2023-04-18T20:07:53.591Z,4.20
2023-04-18T20:10:57.051Z,4.00
2023-04-18T20:14:01.115Z,4.70
2023-04-18T20:17:04.768Z,5.00
2023-04-18T20:20:09.483Z,5.40
2023-04-18T20:23:14.669Z,5.40
2023-04-18T20:26:18.129Z,6.10
2023-04-18T20:29:21.548Z,5.30
2023-04-18T20:32:25.304Z,6.00
2023-04-18T20:35:29.925Z,5.70
2023-04-18T20:38:33.578Z,5.80
2023-04-18T20:41:37.291Z,5.90
2023-04-18T20:57:18.252Z,5.70
2023-04-18T21:00:20.323Z,5.00
2023-04-18T21:03:22.480Z,4.90
2023-04-18T21:06:24.547Z,5.60
2023-04-18T21:09:26.520Z,5.80
2023-04-18T21:12:28.891Z,5.10
2023-04-18T21:15:30.855Z,5.40
2023-04-18T21:18:34.050Z,7.00
2023-04-18T21:21:35.992Z,7.50
2023-04-18T21:24:40.041Z,7.10
2023-04-18T21:27:42.009Z,6.30
2023-04-18T21:30:43.904Z,5.20
2023-04-18T21:33:46.045Z,4.70
2023-04-18T21:36:48.012Z,4.70
2023-04-18T21:39:50.295Z,6.30
2023-04-18T21:42:52.240Z,5.30
2023-04-18T21:45:54.355Z,4.40
2023-04-18T21:48:56.473Z,4.70
2023-04-18T21:51:58.555Z,4.10
2023-04-18T21:55:00.605Z,5.30
2023-04-18T21:58:02.576Z,5.20
2023-04-18T22:04:45.417Z,5.70
2023-04-18T22:07:57.584Z,5.40
2023-04-18T22:11:01.707Z,4.60
2023-04-18T22:14:05.342Z,5.20
2023-04-18T22:17:09.564Z,5.70
2023-04-18T22:20:13.180Z,6.60
2023-04-18T22:23:16.658Z,6.90
2023-04-18T22:26:20.813Z,5.40
2023-04-18T22:29:24.093Z,5.50
2023-04-18T22:32:27.446Z,5.40
2023-04-18T22:35:31.088Z,5.30
2023-04-18T22:38:34.386Z,6.40
2023-04-18T22:41:38.210Z,5.20
2023-04-18T22:44:41.597Z,4.40
2023-04-18T22:47:45.143Z,4.40
2023-04-18T22:50:50.125Z,4.80
2023-04-18T22:53:53.337Z,5.50
2023-04-18T22:56:57.079Z,6.10
2023-04-18T23:00:01.573Z,5.50
2023-04-18T23:03:05.776Z,5.00
2023-04-18T23:06:09.305Z,4.60
2023-04-18T23:09:13.016Z,4.10
2023-04-18T23:12:16.607Z,4.70
2023-04-18T23:15:23.091Z,4.40
2023-04-18T23:18:30.189Z,4.20
2023-04-18T23:21:34.183Z,3.90
2023-04-18T23:24:37.566Z,4.00
2023-04-18T23:27:42.325Z,3.80
2023-04-18T23:30:45.709Z,4.10
2023-04-18T23:33:49.322Z,3.30
2023-04-18T23:36:52.644Z,3.20
2023-04-18T23:39:56.008Z,2.70
2023-04-18T23:42:59.308Z,3.10
2023-04-18T23:46:02.972Z,3.00
2023-04-18T23:49:06.623Z,2.90
2023-04-18T23:52:11.021Z,2.60
2023-04-18T23:55:14.330Z,2.50
2023-04-18T23:58:17.967Z,3.80
